Terminal Aerodrome Forecast
Issued by NWS

Home | Current Version | Previous Version | Graphics & Text | Print | Product List | Glossary On
Versions: 1 2 3 4 5 6 7 8 9 10 11 12 13 14 15 16 17 18 19 20 21 22 23 24 25 26 27 28 29
000
FTUS43 KLOT 222331
TAFDPA
TAF
KDPA 222331Z 2300/2324 20012KT P6SM SKC
     FM230200 22008KT 5SM BR SKC
      TEMPO 2306/2310 2SM BR BCFG SCT003
     FM231000 31008KT 5SM BR SCT250
     FM231400 03012KT P6SM BKN010
     FM231900 03012KT P6SM SCT025=

USA.gov is the U.S. government's official web portal to all federal, state and local government web resources and services.